createdAt,value
2023-02-05T00:01:16.543Z,96.89
2023-02-05T00:03:49.788Z,96.73
2023-02-05T00:06:22.286Z,96.76
2023-02-05T00:09:09.895Z,97.13
2023-02-05T00:11:42.244Z,97.17
2023-02-05T00:14:14.714Z,97.75
2023-02-05T00:16:48.201Z,97.84
2023-02-05T00:19:20.976Z,97.82
2023-02-05T00:21:53.562Z,97.69
2023-02-05T00:24:26.011Z,98.08
2023-02-05T00:26:58.293Z,98.49
2023-02-05T00:29:31.611Z,98.84
2023-02-05T00:32:05.488Z,98.35
2023-02-05T00:34:37.946Z,98.72
2023-02-05T00:37:10.446Z,98.90
2023-02-05T00:39:42.943Z,98.71
2023-02-05T00:42:15.387Z,98.33
2023-02-05T00:44:48.185Z,98.89
2023-02-05T00:47:20.609Z,98.34
2023-02-05T00:49:53.267Z,98.35
2023-02-05T00:52:25.696Z,98.79
2023-02-05T00:54:58.470Z,98.99
2023-02-05T00:57:30.955Z,99.06
2023-02-05T01:00:03.367Z,98.74
2023-02-05T01:02:36.186Z,98.58
2023-02-05T01:05:09.634Z,98.62
2023-02-05T01:07:43.270Z,99.16
2023-02-05T01:10:16.051Z,98.81
2023-02-05T01:12:50.542Z,98.38
2023-02-05T01:15:23.310Z,98.63
2023-02-05T01:17:55.939Z,98.84
2023-02-05T01:20:29.064Z,98.78
2023-02-05T01:23:01.509Z,98.98
2023-02-05T01:25:35.311Z,98.95
2023-02-05T01:28:08.223Z,98.77
2023-02-05T01:30:41.344Z,98.93
2023-02-05T01:33:14.747Z,100.00
2023-02-05T01:35:47.437Z,99.26
2023-02-05T01:38:20.015Z,98.75
2023-02-05T01:40:52.726Z,99.13
2023-02-05T01:43:25.403Z,99.08
2023-02-05T01:46:24.277Z,99.43
2023-02-05T01:48:57.005Z,99.51
2023-02-05T01:51:31.309Z,99.22
2023-02-05T01:54:03.955Z,99.13
2023-02-05T01:56:50.245Z,99.64
2023-02-05T01:59:25.763Z,99.51
2023-02-05T02:01:58.373Z,99.85
2023-02-05T02:04:40.735Z,100.00
2023-02-05T02:07:15.905Z,99.92
2023-02-05T02:09:48.531Z,100.00
2023-02-05T02:12:25.924Z,100.00
2023-02-05T02:15:10.277Z,99.96
2023-02-05T02:17:44.350Z,99.40
2023-02-05T02:20:26.418Z,99.12
2023-02-05T02:23:05.561Z,99.19
2023-02-05T02:26:01.049Z,99.51
2023-02-05T02:28:53.371Z,99.35
2023-02-05T02:31:36.327Z,99.54
2023-02-05T02:34:25.860Z,99.50
2023-02-05T02:37:15.888Z,99.20
2023-02-05T02:39:59.057Z,99.43
2023-02-05T02:42:42.256Z,99.68
2023-02-05T02:45:14.917Z,100.00
2023-02-05T02:47:52.537Z,99.55
2023-02-05T02:50:33.253Z,99.45
2023-02-05T02:53:20.535Z,99.53
2023-02-05T02:55:53.370Z,99.82
2023-02-05T02:58:31.376Z,99.31
2023-02-05T03:01:04.902Z,98.96
2023-02-05T03:03:43.563Z,99.42
2023-02-05T03:06:16.819Z,99.36
2023-02-05T03:09:15.833Z,99.60
2023-02-05T03:11:49.151Z,100.00
2023-02-05T03:14:23.738Z,99.77
2023-02-05T03:16:56.524Z,99.81
2023-02-05T03:19:29.337Z,99.52
2023-02-05T03:22:05.657Z,99.65
2023-02-05T03:24:38.828Z,99.61
2023-02-05T03:27:12.081Z,99.41
2023-02-05T03:29:47.693Z,99.06
2023-02-05T03:32:58.449Z,99.42
2023-02-05T03:35:54.968Z,100.00
2023-02-05T03:39:01.903Z,99.45
2023-02-05T03:42:19.530Z,98.93
2023-02-05T03:45:17.985Z,99.41
2023-02-05T03:48:26.109Z,99.75
2023-02-05T03:51:24.255Z,100.00
2023-02-05T03:54:38.926Z,99.71
2023-02-05T03:57:29.775Z,99.94
2023-02-05T04:00:02.738Z,99.77
2023-02-05T04:02:36.469Z,99.67
2023-02-05T04:05:09.326Z,100.00
2023-02-05T04:07:43.585Z,100.00
2023-02-05T04:10:17.326Z,100.00
2023-02-05T04:12:51.625Z,100.00
2023-02-05T04:15:24.767Z,100.00
2023-02-05T04:17:59.509Z,100.00
2023-02-05T04:20:33.581Z,100.00
2023-02-05T04:23:06.172Z,100.00
2023-02-05T04:25:40.682Z,100.00
2023-02-05T04:28:14.674Z,100.00
2023-02-05T04:30:48.227Z,100.00
2023-02-05T04:33:21.679Z,100.00
2023-02-05T04:35:56.004Z,100.00
2023-02-05T04:38:28.869Z,100.00
2023-02-05T04:41:01.534Z,100.00
2023-02-05T04:43:33.986Z,100.00
2023-02-05T04:46:11.280Z,100.00
2023-02-05T04:48:44.273Z,100.00
2023-02-05T04:51:17.436Z,100.00
2023-02-05T04:53:50.136Z,100.00
2023-02-05T04:56:22.713Z,100.00
2023-02-05T04:58:55.322Z,100.00
2023-02-05T05:01:27.900Z,100.00
2023-02-05T05:04:00.946Z,100.00
2023-02-05T05:06:34.178Z,100.00
2023-02-05T05:09:06.882Z,100.00
2023-02-05T05:11:40.650Z,100.00
2023-02-05T05:14:13.097Z,100.00
2023-02-05T05:16:45.462Z,100.00
2023-02-05T05:19:18.201Z,100.00
2023-02-05T05:21:50.650Z,100.00
2023-02-05T05:24:23.196Z,100.00
2023-02-05T05:26:55.777Z,100.00
2023-02-05T05:29:28.188Z,100.00
2023-02-05T05:32:00.706Z,100.00
2023-02-05T05:34:33.624Z,100.00
2023-02-05T05:37:06.092Z,100.00
2023-02-05T05:39:57.003Z,100.00
2023-02-05T05:42:47.450Z,100.00
2023-02-05T05:45:20.145Z,100.00
2023-02-05T05:47:53.055Z,100.00
2023-02-05T05:50:25.602Z,100.00
2023-02-05T05:52:59.708Z,100.00
2023-02-05T05:55:32.897Z,100.00
2023-02-05T05:58:07.027Z,100.00
2023-02-05T06:00:40.756Z,100.00
2023-02-05T06:03:13.228Z,100.00
2023-02-05T06:05:45.744Z,100.00
2023-02-05T06:08:18.675Z,100.00
2023-02-05T06:10:51.032Z,100.00
2023-02-05T06:13:23.476Z,100.00
2023-02-05T06:15:56.570Z,100.00
2023-02-05T06:18:29.787Z,100.00
2023-02-05T06:21:03.760Z,100.00
2023-02-05T06:23:36.744Z,100.00
2023-02-05T06:26:09.273Z,100.00
2023-02-05T06:28:41.706Z,100.00
2023-02-05T06:31:14.892Z,100.00
2023-02-05T06:33:47.489Z,100.00
2023-02-05T06:36:20.218Z,100.00
2023-02-05T06:38:53.326Z,100.00
2023-02-05T06:41:26.263Z,100.00
2023-02-05T06:43:59.292Z,100.00
2023-02-05T06:46:32.195Z,100.00
2023-02-05T06:49:05.425Z,100.00
2023-02-05T06:51:38.062Z,100.00
2023-02-05T06:54:10.472Z,100.00
2023-02-05T06:56:42.960Z,100.00
2023-02-05T06:59:16.405Z,100.00
2023-02-05T07:01:49.018Z,100.00
2023-02-05T07:04:21.517Z,100.00
2023-02-05T07:06:58.825Z,100.00
2023-02-05T07:09:31.522Z,100.00
2023-02-05T07:12:04.253Z,100.00
2023-02-05T07:14:41.100Z,100.00
2023-02-05T07:17:13.539Z,100.00
2023-02-05T07:19:47.375Z,100.00
2023-02-05T07:22:20.057Z,100.00
2023-02-05T07:24:53.235Z,100.00
2023-02-05T07:27:25.863Z,100.00
2023-02-05T07:30:00.285Z,100.00
2023-02-05T07:32:33.532Z,100.00
2023-02-05T07:35:06.683Z,100.00
2023-02-05T07:37:39.657Z,100.00
2023-02-05T07:40:14.278Z,100.00
2023-02-05T07:42:46.629Z,100.00
2023-02-05T07:45:19.382Z,100.00
2023-02-05T07:47:53.993Z,100.00
2023-02-05T07:50:25.898Z,100.00
2023-02-05T07:52:58.369Z,100.00
2023-02-05T07:55:30.871Z,100.00
2023-02-05T07:58:03.583Z,100.00
2023-02-05T08:00:36.648Z,100.00
2023-02-05T08:03:09.283Z,100.00
2023-02-05T08:05:42.414Z,100.00
2023-02-05T08:08:14.835Z,100.00
2023-02-05T08:10:47.400Z,100.00
2023-02-05T08:13:37.000Z,100.00
2023-02-05T08:16:11.730Z,100.00
2023-02-05T08:18:44.404Z,98.86
2023-02-05T08:21:17.916Z,98.40
2023-02-05T08:23:50.580Z,98.27
2023-02-05T08:26:23.384Z,97.96
2023-02-05T08:28:57.113Z,97.55
2023-02-05T08:31:29.662Z,97.23
2023-02-05T08:34:02.404Z,97.19
2023-02-05T08:36:35.781Z,96.82
2023-02-05T08:39:08.399Z,97.51
2023-02-05T08:41:41.035Z,97.56
2023-02-05T08:44:13.611Z,96.70
2023-02-05T08:46:50.140Z,96.51
2023-02-05T08:49:29.691Z,96.07
2023-02-05T08:52:02.984Z,96.24
2023-02-05T08:54:35.687Z,96.15
2023-02-05T08:57:08.239Z,95.72
2023-02-05T08:59:40.694Z,95.43
2023-02-05T09:02:17.918Z,94.87
2023-02-05T09:04:54.473Z,94.50
2023-02-05T09:07:24.254Z,94.17
2023-02-05T09:09:56.621Z,95.28
2023-02-05T09:12:29.539Z,94.19
2023-02-05T09:15:01.987Z,93.78
2023-02-05T09:17:35.402Z,93.97
2023-02-05T09:20:27.495Z,93.29
2023-02-05T09:23:00.301Z,92.17
2023-02-05T09:25:34.729Z,92.08
2023-02-05T09:28:09.436Z,91.78
2023-02-05T09:30:43.694Z,92.04
2023-02-05T09:33:16.672Z,91.71
2023-02-05T09:35:49.025Z,92.38
2023-02-05T09:38:21.815Z,92.97
2023-02-05T09:41:09.740Z,93.17
2023-02-05T09:44:10.792Z,93.50
2023-02-05T09:47:10.510Z,93.86
2023-02-05T09:49:56.394Z,94.52
2023-02-05T09:52:51.313Z,94.55
2023-02-05T09:55:27.823Z,94.49
2023-02-05T09:58:18.632Z,94.46
2023-02-05T10:00:59.621Z,95.11
2023-02-05T10:03:45.311Z,95.72
2023-02-05T10:06:59.154Z,96.01
2023-02-05T10:09:36.530Z,96.27
2023-02-05T10:12:41.834Z,97.37
2023-02-05T10:15:41.472Z,97.57
2023-02-05T10:18:53.119Z,97.16
2023-02-05T10:21:59.035Z,97.19
2023-02-05T10:24:59.712Z,97.99
2023-02-05T10:27:40.504Z,98.64
2023-02-05T10:30:22.692Z,98.48
2023-02-05T10:33:09.648Z,98.43
2023-02-05T10:36:02.526Z,98.88
2023-02-05T10:38:39.984Z,100.00
2023-02-05T10:41:40.338Z,100.00
2023-02-05T10:44:38.604Z,100.00
2023-02-05T10:47:19.246Z,100.00
2023-02-05T10:50:10.506Z,100.00
2023-02-05T10:52:44.215Z,99.84
2023-02-05T10:55:17.199Z,99.69
2023-02-05T10:57:49.621Z,99.39
2023-02-05T11:00:23.838Z,99.47
2023-02-05T11:02:55.855Z,99.19
2023-02-05T11:05:44.162Z,99.32
2023-02-05T11:08:39.629Z,100.00
2023-02-05T11:11:22.338Z,100.00
2023-02-05T11:13:59.126Z,100.00
2023-02-05T11:16:44.262Z,100.00
2023-02-05T11:19:29.091Z,100.00
2023-02-05T11:22:04.695Z,100.00
2023-02-05T11:24:41.022Z,100.00
2023-02-05T11:27:23.601Z,100.00
2023-02-05T11:30:00.054Z,100.00
2023-02-05T11:32:39.908Z,99.92
2023-02-05T11:35:22.374Z,99.96
2023-02-05T11:38:09.165Z,99.86
2023-02-05T11:40:41.575Z,99.89
2023-02-05T11:43:24.328Z,99.24
2023-02-05T11:45:58.606Z,99.30
2023-02-05T11:48:40.459Z,99.37
2023-02-05T11:51:16.632Z,99.33
2023-02-05T11:54:11.789Z,99.29
2023-02-05T11:56:47.301Z,99.73
2023-02-05T11:59:24.381Z,99.80
2023-02-05T12:01:56.881Z,99.75
2023-02-05T12:04:29.410Z,100.00
2023-02-05T12:07:09.086Z,100.00
2023-02-05T12:09:41.730Z,100.00
2023-02-05T12:12:20.631Z,100.00
2023-02-05T12:15:18.291Z,100.00
2023-02-05T12:18:19.289Z,100.00
2023-02-05T12:21:06.751Z,100.00
2023-02-05T12:24:02.670Z,100.00
2023-02-05T12:26:41.572Z,100.00
2023-02-05T12:29:40.193Z,100.00
2023-02-05T12:32:29.118Z,100.00
2023-02-05T12:35:45.483Z,100.00
2023-02-05T12:38:57.621Z,100.00
2023-02-05T12:42:01.141Z,100.00
2023-02-05T12:44:55.509Z,100.00
2023-02-05T12:47:44.703Z,100.00
2023-02-05T12:50:48.508Z,100.00
2023-02-05T12:53:53.252Z,100.00
2023-02-05T12:56:52.733Z,100.00
2023-02-05T12:59:37.042Z,100.00
2023-02-05T13:02:38.324Z,100.00
2023-02-05T13:05:34.048Z,100.00
2023-02-05T13:08:11.204Z,100.00
2023-02-05T13:10:56.143Z,100.00
2023-02-05T13:13:33.913Z,100.00
2023-02-05T13:16:10.976Z,100.00
2023-02-05T13:18:54.412Z,100.00
2023-02-05T13:21:44.589Z,100.00
2023-02-05T13:25:09.406Z,100.00
2023-02-05T13:28:05.001Z,100.00
2023-02-05T13:30:44.842Z,100.00
2023-02-05T13:33:17.432Z,100.00
2023-02-05T13:36:29.831Z,100.00
2023-02-05T13:39:52.173Z,100.00
2023-02-05T13:42:41.454Z,100.00
2023-02-05T13:45:28.866Z,100.00
2023-02-05T13:48:20.761Z,100.00
2023-02-05T13:51:29.021Z,100.00
2023-02-05T13:54:41.307Z,100.00
2023-02-05T13:57:39.753Z,100.00
2023-02-05T14:00:14.087Z,100.00
2023-02-05T14:02:50.492Z,100.00
2023-02-05T14:05:32.352Z,100.00
2023-02-05T14:08:05.249Z,100.00
2023-02-05T14:10:45.133Z,100.00
2023-02-05T14:13:31.881Z,100.00
2023-02-05T14:16:31.749Z,100.00
2023-02-05T14:19:09.055Z,100.00
2023-02-05T14:22:13.689Z,100.00
2023-02-05T14:24:49.447Z,100.00
2023-02-05T14:27:36.227Z,100.00
2023-02-05T14:30:39.147Z,100.00
2023-02-05T14:33:36.215Z,100.00
2023-02-05T14:36:23.024Z,100.00
2023-02-05T14:39:02.046Z,100.00
2023-02-05T14:41:47.575Z,100.00
2023-02-05T14:44:27.234Z,100.00
2023-02-05T14:47:25.965Z,100.00
2023-02-05T14:50:10.291Z,100.00
2023-02-05T14:53:02.855Z,100.00
2023-02-05T14:55:43.778Z,100.00
2023-02-05T14:58:27.287Z,100.00
2023-02-05T15:01:32.520Z,100.00
2023-02-05T15:04:05.391Z,100.00
2023-02-05T15:06:41.799Z,100.00
2023-02-05T15:09:19.325Z,100.00
2023-02-05T15:12:20.878Z,100.00
2023-02-05T15:14:54.689Z,100.00
2023-02-05T15:17:37.883Z,100.00
2023-02-05T15:20:42.634Z,100.00
2023-02-05T15:23:39.159Z,100.00
2023-02-05T15:26:31.808Z,100.00
2023-02-05T15:29:32.406Z,100.00
2023-02-05T15:32:29.898Z,100.00
2023-02-05T15:35:35.176Z,100.00
2023-02-05T15:38:36.021Z,100.00
2023-02-05T15:41:08.798Z,100.00
2023-02-05T15:43:41.955Z,100.00
2023-02-05T15:46:15.186Z,100.00
2023-02-05T15:48:47.992Z,100.00
2023-02-05T15:51:33.897Z,100.00
2023-02-05T15:54:08.335Z,100.00
2023-02-05T15:56:45.368Z,100.00
2023-02-05T15:59:25.107Z,100.00
2023-02-05T16:02:11.373Z,100.00
2023-02-05T16:04:44.201Z,100.00
2023-02-05T16:07:26.061Z,100.00
2023-02-05T16:10:01.088Z,100.00
2023-02-05T16:12:33.647Z,100.00
2023-02-05T16:15:07.954Z,100.00
2023-02-05T16:17:46.300Z,100.00
2023-02-05T16:20:27.946Z,100.00
2023-02-05T16:23:17.252Z,100.00
2023-02-05T16:26:04.209Z,100.00
2023-02-05T16:28:42.292Z,100.00
2023-02-05T16:31:21.081Z,100.00
2023-02-05T16:34:19.834Z,100.00
2023-02-05T16:36:53.501Z,100.00
2023-02-05T16:39:54.746Z,100.00
2023-02-05T16:42:44.142Z,100.00
2023-02-05T16:45:25.181Z,100.00
2023-02-05T16:48:22.288Z,100.00
2023-02-05T16:50:56.405Z,100.00
2023-02-05T16:53:31.440Z,100.00
2023-02-05T16:56:22.864Z,100.00
2023-02-05T16:58:58.711Z,100.00
2023-02-05T17:01:41.646Z,100.00
2023-02-05T17:04:29.964Z,100.00
2023-02-05T17:07:04.227Z,100.00
2023-02-05T17:09:38.754Z,100.00
2023-02-05T17:12:36.367Z,100.00
2023-02-05T17:15:22.692Z,100.00
2023-02-05T17:17:57.270Z,100.00
2023-02-05T17:20:29.018Z,100.00
2023-02-05T17:23:09.463Z,100.00
2023-02-05T17:25:57.333Z,100.00
2023-02-05T17:28:30.126Z,100.00
2023-02-05T17:31:02.660Z,100.00
2023-02-05T17:33:35.837Z,100.00
2023-02-05T17:36:12.041Z,100.00
2023-02-05T17:38:45.468Z,100.00
2023-02-05T17:41:39.323Z,99.69
2023-02-05T17:44:15.984Z,98.53
2023-02-05T17:46:48.497Z,97.46
2023-02-05T17:49:21.043Z,96.90
2023-02-05T17:51:53.648Z,96.54
2023-02-05T17:54:26.825Z,96.21
2023-02-05T17:57:03.031Z,95.87
2023-02-05T17:59:35.575Z,96.44
2023-02-05T18:02:08.105Z,96.30
2023-02-05T18:04:40.766Z,95.72
2023-02-05T18:07:33.147Z,95.64
2023-02-05T18:10:07.071Z,94.88
2023-02-05T18:12:39.636Z,94.24
2023-02-05T18:15:12.236Z,93.64
2023-02-05T18:17:45.322Z,93.93
2023-02-05T18:20:21.064Z,94.17
2023-02-05T18:22:53.935Z,93.75
2023-02-05T18:25:26.779Z,93.70
2023-02-05T18:27:59.923Z,94.18
2023-02-05T18:30:32.689Z,94.15
2023-02-05T18:33:07.361Z,93.74
2023-02-05T18:35:40.918Z,93.10
2023-02-05T18:38:13.496Z,92.79
2023-02-05T18:40:45.922Z,92.32
2023-02-05T18:43:19.345Z,92.39
2023-02-05T18:45:52.338Z,92.66
2023-02-05T18:48:24.831Z,92.30
2023-02-05T18:50:57.895Z,92.43
2023-02-05T18:53:30.323Z,92.28
2023-02-05T18:56:06.803Z,92.29
2023-02-05T18:58:39.775Z,91.99
2023-02-05T19:01:17.198Z,92.02
2023-02-05T19:03:52.886Z,92.01
2023-02-05T19:06:36.015Z,91.41
2023-02-05T19:09:08.822Z,90.87
2023-02-05T19:11:41.975Z,91.23
2023-02-05T19:14:16.346Z,91.26
2023-02-05T19:16:49.214Z,90.66
2023-02-05T19:19:24.713Z,90.21
2023-02-05T19:22:02.218Z,89.64
2023-02-05T19:24:36.402Z,89.24
2023-02-05T19:27:10.163Z,89.54
2023-02-05T19:29:42.747Z,89.26
2023-02-05T19:32:15.835Z,89.25
2023-02-05T19:34:48.238Z,89.46
2023-02-05T19:37:20.651Z,89.42
2023-02-05T19:39:53.151Z,89.32
2023-02-05T19:42:27.362Z,90.51
2023-02-05T19:44:59.081Z,90.51
2023-02-05T19:47:31.259Z,90.09
2023-02-05T19:50:04.116Z,90.44
2023-02-05T19:52:36.860Z,90.33
2023-02-05T19:55:09.378Z,90.48
2023-02-05T19:57:43.067Z,90.71
2023-02-05T20:00:16.507Z,90.73
2023-02-05T20:02:49.560Z,90.57
2023-02-05T20:05:22.914Z,90.47
2023-02-05T20:07:55.519Z,90.71
2023-02-05T20:10:28.026Z,91.03
2023-02-05T20:13:01.334Z,90.56
2023-02-05T20:15:36.922Z,90.36
2023-02-05T20:18:09.486Z,90.39
2023-02-05T20:20:42.380Z,90.70
2023-02-05T20:23:15.171Z,90.76
2023-02-05T20:26:08.709Z,90.79
2023-02-05T20:29:00.708Z,90.69
2023-02-05T20:34:44.865Z,90.51
2023-02-05T20:37:19.565Z,90.81
2023-02-05T20:39:51.376Z,91.56
2023-02-05T20:42:24.032Z,91.50
2023-02-05T20:44:57.301Z,91.26
2023-02-05T20:47:29.855Z,91.08
2023-02-05T20:50:02.728Z,90.84
2023-02-05T20:52:35.708Z,90.62
2023-02-05T20:55:08.933Z,90.26
2023-02-05T20:57:43.109Z,90.76
2023-02-05T21:00:16.244Z,91.23
2023-02-05T21:02:48.684Z,91.33
2023-02-05T21:05:20.999Z,90.98
2023-02-05T21:07:53.844Z,90.97
2023-02-05T21:10:26.812Z,90.32
2023-02-05T21:12:59.408Z,90.06
2023-02-05T21:15:33.774Z,89.91
2023-02-05T21:18:05.925Z,90.19
2023-02-05T21:20:38.703Z,90.77
2023-02-05T21:23:11.209Z,90.98
2023-02-05T21:25:43.894Z,90.79
2023-02-05T21:28:18.772Z,91.11
2023-02-05T21:30:51.393Z,91.30
2023-02-05T21:33:23.850Z,90.78
2023-02-05T21:35:56.837Z,91.21
2023-02-05T21:38:30.901Z,90.89
2023-02-05T21:41:09.315Z,91.31
2023-02-05T21:43:42.228Z,91.51
2023-02-05T21:46:15.085Z,91.71
2023-02-05T21:48:50.752Z,92.01
2023-02-05T21:51:25.415Z,92.74
2023-02-05T21:54:00.257Z,93.00
2023-02-05T21:56:38.559Z,92.83
2023-02-05T21:59:12.403Z,93.26
2023-02-05T22:01:54.360Z,93.10
2023-02-05T22:04:26.871Z,93.21
2023-02-05T22:06:59.214Z,93.03
2023-02-05T22:09:31.683Z,93.13
2023-02-05T22:12:06.462Z,93.05
2023-02-05T22:14:38.959Z,92.93
2023-02-05T22:17:12.987Z,93.36
2023-02-05T22:19:45.986Z,94.22
2023-02-05T22:22:19.157Z,94.35
2023-02-05T22:24:52.277Z,94.48
2023-02-05T22:27:24.824Z,95.67
2023-02-05T22:29:57.397Z,96.19
2023-02-05T22:32:29.706Z,97.51
2023-02-05T22:35:02.447Z,97.95
2023-02-05T22:37:35.087Z,98.00
2023-02-05T22:40:09.208Z,97.92
2023-02-05T22:42:41.667Z,97.75
2023-02-05T22:45:14.808Z,98.45
2023-02-05T22:47:47.399Z,99.85
2023-02-05T22:50:21.163Z,100.00
2023-02-05T22:52:53.871Z,100.00
2023-02-05T22:55:26.259Z,100.00
2023-02-05T22:57:58.699Z,100.00
2023-02-05T23:00:43.389Z,100.00
2023-02-05T23:03:33.009Z,100.00
2023-02-05T23:06:17.348Z,100.00
2023-02-05T23:08:59.662Z,100.00
2023-02-05T23:11:34.116Z,100.00
2023-02-05T23:14:07.958Z,100.00
2023-02-05T23:16:43.513Z,100.00
2023-02-05T23:19:19.202Z,100.00
2023-02-05T23:21:52.092Z,100.00
2023-02-05T23:24:25.079Z,100.00
2023-02-05T23:26:57.688Z,100.00
2023-02-05T23:29:30.208Z,100.00
2023-02-05T23:32:02.715Z,100.00
2023-02-05T23:34:35.341Z,100.00
2023-02-05T23:37:07.855Z,100.00
2023-02-05T23:39:40.316Z,100.00
2023-02-05T23:42:12.942Z,100.00
2023-02-05T23:44:45.470Z,100.00
2023-02-05T23:47:17.924Z,100.00
2023-02-05T23:49:50.705Z,100.00
2023-02-05T23:52:23.433Z,100.00
2023-02-05T23:54:55.866Z,100.00
2023-02-05T23:57:28.881Z,100.00
